Mount Sterling, KY

6:42 AM EDT on October 01, 2016 (GMT -0400)
Hinkston Pike | | Change Station

Elev 971 ft 38.07 °N, 83.94 °W | Updated 5 minutes ago

Overcast
Overcast
56.8 °F
Feels Like 56.8 °F
N
1.2
Wind Variable Wind from SSE
Gusts 4.3 mph

Today
High -- | Low -- °F
--% Chance of Precip.
Yesterday
High -- | Low -- °F
Precip. -- in
Pressure 30.06 in
Visibility 10.0 miles
Clouds Scattered Clouds 2000 ft
Overcast 3100 ft
Dew Point 52 °F
Humidity 84%
Rainfall 0.00 in
Snow Depth Not available.
7:31 AM 7:17 PM
New Moon, 0% visible
METAR KIOB 011015Z AUTO 00000KT 10SM SCT020 OVC031 12/12 A3006 RMK AO2
Pressure 30.06 in
Visibility 10.0 miles
Clouds Scattered Clouds 2000 ft
Overcast 3100 ft
Dew Point 52 °F
Humidity 84%
Rainfall 0.00 in
Snow Depth Not available.
7:31 AM 7:17 PM
New Moon, 0% visible
METAR KIOB 011015Z AUTO 00000KT 10SM SCT020 OVC031 12/12 A3006 RMK AO2

10-Day Weather Forecast

Almanac

Astronomy

Oct. 01, 2016 Rise Set
Actual Time
Civil Twilight
Nautical Twilight
Astronomical Twilight
Moon
Length of Visible Light
Length of Day
Tomorrow will be .
, % of the Moon is Illuminated

Today's Extremes

State Highs State Lows

Community

WunderPhotos

Upload Photos

1,942,908 photos uploaded!

WunderBlog® & News

Nearby

Air Quality

  Air Quality AQ Index Pollutant
Not available.

Snow Depth

Station Depth Elevation

Earthquake Activity

City Distance Mag. Time & Date
Minimum magnitude displayed is 2.5.

Coastal Water Temperatures

Place Temperature

Stations

Nearby Weather Stations

Station Location Temp. Windchill Dew Point Humidity Wind Precip. Elev Updated Type
                   

Watches & Warnings

There are currently no watches in effect.